sensor_id;sensor_type;location;lat;lon;timestamp;P1;durP1;ratioP1;P2;durP2;ratioP2
52740;SDS011;38634;52.138;9.912;2023-12-20T00:01:23;17.48;;;4.25;;
52740;SDS011;38634;52.138;9.912;2023-12-20T00:04:07;19.55;;;4.35;;
52740;SDS011;38634;52.138;9.912;2023-12-20T00:06:52;23.52;;;4.78;;
52740;SDS011;38634;52.138;9.912;2023-12-20T00:09:36;25.67;;;5.05;;
52740;SDS011;38634;52.138;9.912;2023-12-20T00:12:21;24.85;;;4.90;;
52740;SDS011;38634;52.138;9.912;2023-12-20T00:15:06;21.65;;;4.35;;
52740;SDS011;38634;52.138;9.912;2023-12-20T00:17:51;24.27;;;4.63;;
52740;SDS011;38634;52.138;9.912;2023-12-20T00:20:35;24.23;;;4.72;;
52740;SDS011;38634;52.138;9.912;2023-12-20T00:23:20;26.92;;;5.05;;
52740;SDS011;38634;52.138;9.912;2023-12-20T00:26:04;19.80;;;4.50;;
52740;SDS011;38634;52.138;9.912;2023-12-20T00:28:49;26.02;;;4.95;;
52740;SDS011;38634;52.138;9.912;2023-12-20T00:31:34;27.48;;;5.13;;
52740;SDS011;38634;52.138;9.912;2023-12-20T00:34:18;17.98;;;3.70;;
52740;SDS011;38634;52.138;9.912;2023-12-20T00:37:03;24.50;;;5.43;;
52740;SDS011;38634;52.138;9.912;2023-12-20T00:39:48;27.38;;;5.13;;
52740;SDS011;38634;52.138;9.912;2023-12-20T00:42:32;24.65;;;4.80;;
52740;SDS011;38634;52.138;9.912;2023-12-20T00:45:17;23.25;;;4.63;;
52740;SDS011;38634;52.138;9.912;2023-12-20T00:48:01;21.63;;;4.60;;
52740;SDS011;38634;52.138;9.912;2023-12-20T00:50:47;17.13;;;4.18;;
52740;SDS011;38634;52.138;9.912;2023-12-20T00:53:31;28.63;;;5.75;;
52740;SDS011;38634;52.138;9.912;2023-12-20T00:56:16;16.98;;;3.88;;
52740;SDS011;38634;52.138;9.912;2023-12-20T00:59:01;22.98;;;4.57;;
52740;SDS011;38634;52.138;9.912;2023-12-20T01:01:45;26.13;;;4.85;;
52740;SDS011;38634;52.138;9.912;2023-12-20T01:04:30;23.73;;;4.88;;
52740;SDS011;38634;52.138;9.912;2023-12-20T01:07:15;23.80;;;4.70;;
52740;SDS011;38634;52.138;9.912;2023-12-20T01:09:59;22.50;;;4.78;;
52740;SDS011;38634;52.138;9.912;2023-12-20T01:12:44;22.38;;;4.70;;
52740;SDS011;38634;52.138;9.912;2023-12-20T01:15:28;14.93;;;3.95;;
52740;SDS011;38634;52.138;9.912;2023-12-20T01:18:13;14.70;;;3.72;;
52740;SDS011;38634;52.138;9.912;2023-12-20T01:21:01;21.58;;;4.35;;
52740;SDS011;38634;52.138;9.912;2023-12-20T01:23:48;23.00;;;4.65;;
52740;SDS011;38634;52.138;9.912;2023-12-20T01:26:33;26.52;;;5.70;;
52740;SDS011;38634;52.138;9.912;2023-12-20T01:29:17;23.88;;;4.70;;
52740;SDS011;38634;52.138;9.912;2023-12-20T01:32:02;24.88;;;4.82;;
52740;SDS011;38634;52.138;9.912;2023-12-20T01:34:46;24.50;;;4.88;;
52740;SDS011;38634;52.138;9.912;2023-12-20T01:37:32;20.15;;;4.70;;
52740;SDS011;38634;52.138;9.912;2023-12-20T01:40:16;23.08;;;4.82;;
52740;SDS011;38634;52.138;9.912;2023-12-20T01:43:07;19.23;;;4.07;;
52740;SDS011;38634;52.138;9.912;2023-12-20T01:45:52;21.65;;;4.95;;
52740;SDS011;38634;52.138;9.912;2023-12-20T01:48:39;18.15;;;4.28;;
52740;SDS011;38634;52.138;9.912;2023-12-20T01:51:24;18.58;;;4.63;;
52740;SDS011;38634;52.138;9.912;2023-12-20T01:54:11;25.23;;;4.88;;
52740;SDS011;38634;52.138;9.912;2023-12-20T01:56:55;23.00;;;4.60;;
52740;SDS011;38634;52.138;9.912;2023-12-20T01:59:40;18.98;;;4.15;;
52740;SDS011;38634;52.138;9.912;2023-12-20T02:02:24;24.65;;;4.90;;
52740;SDS011;38634;52.138;9.912;2023-12-20T02:05:11;24.80;;;5.15;;
52740;SDS011;38634;52.138;9.912;2023-12-20T02:07:56;25.23;;;5.38;;
52740;SDS011;38634;52.138;9.912;2023-12-20T02:10:41;22.20;;;5.15;;
52740;SDS011;38634;52.138;9.912;2023-12-20T02:13:26;28.08;;;5.65;;
52740;SDS011;38634;52.138;9.912;2023-12-20T02:16:10;22.05;;;4.53;;
52740;SDS011;38634;52.138;9.912;2023-12-20T02:18:55;25.00;;;5.00;;
52740;SDS011;38634;52.138;9.912;2023-12-20T02:21:39;19.50;;;4.10;;
52740;SDS011;38634;52.138;9.912;2023-12-20T02:24:24;18.67;;;4.03;;
52740;SDS011;38634;52.138;9.912;2023-12-20T02:27:09;21.10;;;4.45;;
52740;SDS011;38634;52.138;9.912;2023-12-20T02:29:53;23.58;;;4.80;;
52740;SDS011;38634;52.138;9.912;2023-12-20T02:32:38;15.45;;;3.80;;
52740;SDS011;38634;52.138;9.912;2023-12-20T02:35:22;21.90;;;4.60;;
52740;SDS011;38634;52.138;9.912;2023-12-20T02:38:07;17.50;;;4.13;;
52740;SDS011;38634;52.138;9.912;2023-12-20T02:40:51;24.67;;;5.18;;
52740;SDS011;38634;52.138;9.912;2023-12-20T02:43:36;28.42;;;5.57;;
52740;SDS011;38634;52.138;9.912;2023-12-20T02:46:21;18.77;;;3.97;;
52740;SDS011;38634;52.138;9.912;2023-12-20T02:49:07;18.65;;;4.05;;
52740;SDS011;38634;52.138;9.912;2023-12-20T02:51:52;26.92;;;5.28;;
52740;SDS011;38634;52.138;9.912;2023-12-20T02:54:36;21.48;;;4.57;;
52740;SDS011;38634;52.138;9.912;2023-12-20T02:57:21;21.70;;;4.57;;
52740;SDS011;38634;52.138;9.912;2023-12-20T03:00:06;21.85;;;4.75;;
52740;SDS011;38634;52.138;9.912;2023-12-20T03:02:53;22.98;;;4.70;;
52740;SDS011;38634;52.138;9.912;2023-12-20T03:05:37;23.38;;;4.57;;
52740;SDS011;38634;52.138;9.912;2023-12-20T03:08:22;20.35;;;4.85;;
52740;SDS011;38634;52.138;9.912;2023-12-20T03:11:06;24.13;;;4.93;;
52740;SDS011;38634;52.138;9.912;2023-12-20T03:13:51;22.65;;;4.88;;
52740;SDS011;38634;52.138;9.912;2023-12-20T03:16:36;18.38;;;4.35;;
52740;SDS011;38634;52.138;9.912;2023-12-20T03:19:20;24.08;;;4.90;;
52740;SDS011;38634;52.138;9.912;2023-12-20T03:22:05;22.02;;;4.60;;
52740;SDS011;38634;52.138;9.912;2023-12-20T03:24:50;21.95;;;4.65;;
52740;SDS011;38634;52.138;9.912;2023-12-20T03:27:36;23.67;;;6.72;;
52740;SDS011;38634;52.138;9.912;2023-12-20T03:30:22;23.13;;;7.15;;
52740;SDS011;38634;52.138;9.912;2023-12-20T03:33:07;23.35;;;6.72;;
52740;SDS011;38634;52.138;9.912;2023-12-20T03:35:51;24.63;;;8.68;;
52740;SDS011;38634;52.138;9.912;2023-12-20T03:38:36;28.98;;;8.15;;
52740;SDS011;38634;52.138;9.912;2023-12-20T03:41:20;28.17;;;7.55;;
52740;SDS011;38634;52.138;9.912;2023-12-20T03:44:05;24.95;;;5.75;;
52740;SDS011;38634;52.138;9.912;2023-12-20T03:46:50;26.02;;;5.97;;
52740;SDS011;38634;52.138;9.912;2023-12-20T13:14:56;38.85;;;7.72;;
52740;SDS011;38634;52.138;9.912;2023-12-20T13:17:41;27.02;;;6.68;;
52740;SDS011;38634;52.138;9.912;2023-12-20T13:20:26;51.00;;;10.98;;
52740;SDS011;38634;52.138;9.912;2023-12-20T13:23:10;50.13;;;11.13;;
52740;SDS011;38634;52.138;9.912;2023-12-20T13:25:55;34.78;;;7.13;;
52740;SDS011;38634;52.138;9.912;2023-12-20T13:28:39;27.05;;;6.38;;
52740;SDS011;38634;52.138;9.912;2023-12-20T13:31:24;52.20;;;11.77;;
52740;SDS011;38634;52.138;9.912;2023-12-20T13:34:09;61.38;;;12.10;;
52740;SDS011;38634;52.138;9.912;2023-12-20T13:36:53;34.75;;;7.43;;
52740;SDS011;38634;52.138;9.912;2023-12-20T13:39:38;33.22;;;7.15;;
52740;SDS011;38634;52.138;9.912;2023-12-20T13:42:24;56.40;;;9.98;;
52740;SDS011;38634;52.138;9.912;2023-12-20T13:45:11;66.68;;;12.70;;
52740;SDS011;38634;52.138;9.912;2023-12-20T13:47:55;42.25;;;8.07;;
52740;SDS011;38634;52.138;9.912;2023-12-20T13:50:40;32.42;;;6.40;;
52740;SDS011;38634;52.138;9.912;2023-12-20T13:53:24;62.08;;;10.93;;
52740;SDS011;38634;52.138;9.912;2023-12-20T13:56:09;62.30;;;11.27;;
52740;SDS011;38634;52.138;9.912;2023-12-20T13:58:54;54.85;;;10.25;;
52740;SDS011;38634;52.138;9.912;2023-12-20T14:01:38;32.50;;;6.53;;
52740;SDS011;38634;52.138;9.912;2023-12-20T14:04:23;38.97;;;7.68;;
52740;SDS011;38634;52.138;9.912;2023-12-20T14:07:07;46.60;;;9.13;;
52740;SDS011;38634;52.138;9.912;2023-12-20T14:09:53;49.60;;;9.32;;
52740;SDS011;38634;52.138;9.912;2023-12-20T14:12:37;35.20;;;7.30;;
52740;SDS011;38634;52.138;9.912;2023-12-20T14:15:22;32.25;;;6.68;;
52740;SDS011;38634;52.138;9.912;2023-12-20T14:18:09;61.33;;;11.88;;
52740;SDS011;38634;52.138;9.912;2023-12-20T14:20:53;58.72;;;10.93;;
52740;SDS011;38634;52.138;9.912;2023-12-20T14:23:38;33.08;;;6.45;;
52740;SDS011;38634;52.138;9.912;2023-12-20T14:26:23;28.88;;;6.47;;
52740;SDS011;38634;52.138;9.912;2023-12-20T14:29:07;53.22;;;10.13;;
52740;SDS011;38634;52.138;9.912;2023-12-20T14:31:53;60.92;;;11.27;;
52740;SDS011;38634;52.138;9.912;2023-12-20T14:34:37;29.35;;;6.35;;
52740;SDS011;38634;52.138;9.912;2023-12-20T14:37:22;36.40;;;7.57;;
52740;SDS011;38634;52.138;9.912;2023-12-20T14:40:07;46.72;;;9.35;;
52740;SDS011;38634;52.138;9.912;2023-12-20T14:42:58;43.50;;;8.18;;
52740;SDS011;38634;52.138;9.912;2023-12-20T14:45:43;38.10;;;7.43;;
52740;SDS011;38634;52.138;9.912;2023-12-20T14:48:28;47.50;;;9.20;;
52740;SDS011;38634;52.138;9.912;2023-12-20T14:51:13;61.85;;;11.82;;
52740;SDS011;38634;52.138;9.912;2023-12-20T14:53:57;41.67;;;8.55;;
52740;SDS011;38634;52.138;9.912;2023-12-20T14:56:42;27.92;;;7.13;;
52740;SDS011;38634;52.138;9.912;2023-12-20T14:59:26;36.67;;;7.47;;
52740;SDS011;38634;52.138;9.912;2023-12-20T15:02:11;60.95;;;11.80;;
52740;SDS011;38634;52.138;9.912;2023-12-20T15:04:56;57.10;;;11.10;;
52740;SDS011;38634;52.138;9.912;2023-12-20T15:07:40;32.45;;;6.90;;
52740;SDS011;38634;52.138;9.912;2023-12-20T15:10:25;33.03;;;7.47;;
52740;SDS011;38634;52.138;9.912;2023-12-20T15:13:10;55.88;;;11.27;;
52740;SDS011;38634;52.138;9.912;2023-12-20T15:15:56;57.40;;;10.93;;
52740;SDS011;38634;52.138;9.912;2023-12-20T15:18:43;32.85;;;7.07;;
52740;SDS011;38634;52.138;9.912;2023-12-20T15:21:27;29.55;;;6.72;;
52740;SDS011;38634;52.138;9.912;2023-12-20T15:24:17;49.83;;;10.02;;
52740;SDS011;38634;52.138;9.912;2023-12-20T15:27:11;33.55;;;7.28;;
52740;SDS011;38634;52.138;9.912;2023-12-20T15:29:56;49.45;;;9.73;;
52740;SDS011;38634;52.138;9.912;2023-12-20T15:32:41;68.13;;;12.18;;
52740;SDS011;38634;52.138;9.912;2023-12-20T15:35:25;41.78;;;8.50;;
52740;SDS011;38634;52.138;9.912;2023-12-20T15:38:10;28.17;;;5.95;;
52740;SDS011;38634;52.138;9.912;2023-12-20T15:40:55;48.47;;;9.57;;
52740;SDS011;38634;52.138;9.912;2023-12-20T15:43:40;65.95;;;12.25;;
52740;SDS011;38634;52.138;9.912;2023-12-20T15:46:24;61.60;;;11.13;;
52740;SDS011;38634;52.138;9.912;2023-12-20T15:49:09;34.55;;;7.15;;
52740;SDS011;38634;52.138;9.912;2023-12-20T15:51:57;54.00;;;10.73;;
52740;SDS011;38634;52.138;9.912;2023-12-20T15:54:41;57.10;;;11.32;;
52740;SDS011;38634;52.138;9.912;2023-12-20T15:57:26;46.67;;;9.43;;
52740;SDS011;38634;52.138;9.912;2023-12-20T16:00:10;35.53;;;7.38;;
52740;SDS011;38634;52.138;9.912;2023-12-20T16:02:55;44.25;;;9.10;;
52740;SDS011;38634;52.138;9.912;2023-12-20T16:05:40;63.58;;;12.23;;
52740;SDS011;38634;52.138;9.912;2023-12-20T16:08:25;61.65;;;11.55;;
52740;SDS011;38634;52.138;9.912;2023-12-20T16:11:09;33.10;;;6.93;;
52740;SDS011;38634;52.138;9.912;2023-12-20T16:13:54;43.33;;;8.70;;
52740;SDS011;38634;52.138;9.912;2023-12-20T16:16:39;59.53;;;11.60;;
52740;SDS011;38634;52.138;9.912;2023-12-20T16:19:23;61.58;;;12.20;;
52740;SDS011;38634;52.138;9.912;2023-12-20T16:22:08;36.35;;;7.65;;
52740;SDS011;38634;52.138;9.912;2023-12-20T16:24:52;40.78;;;8.07;;
52740;SDS011;38634;52.138;9.912;2023-12-20T16:27:37;68.95;;;12.80;;
52740;SDS011;38634;52.138;9.912;2023-12-20T16:30:21;63.08;;;11.57;;
52740;SDS011;38634;52.138;9.912;2023-12-20T16:33:06;37.13;;;7.45;;
52740;SDS011;38634;52.138;9.912;2023-12-20T16:35:51;35.78;;;7.28;;
52740;SDS011;38634;52.138;9.912;2023-12-20T16:38:36;59.42;;;12.35;;
52740;SDS011;38634;52.138;9.912;2023-12-20T16:41:20;64.63;;;12.02;;
52740;SDS011;38634;52.138;9.912;2023-12-20T16:44:05;41.03;;;7.95;;
52740;SDS011;38634;52.138;9.912;2023-12-20T16:46:49;39.20;;;7.75;;
52740;SDS011;38634;52.138;9.912;2023-12-20T16:49:34;50.38;;;9.50;;
52740;SDS011;38634;52.138;9.912;2023-12-20T16:52:19;46.22;;;9.50;;
52740;SDS011;38634;52.138;9.912;2023-12-20T16:55:04;56.42;;;10.50;;
52740;SDS011;38634;52.138;9.912;2023-12-20T16:57:49;37.97;;;7.88;;
52740;SDS011;38634;52.138;9.912;2023-12-20T17:00:33;41.25;;;8.93;;
52740;SDS011;38634;52.138;9.912;2023-12-20T17:03:18;63.75;;;11.43;;
52740;SDS011;38634;52.138;9.912;2023-12-20T17:06:03;46.78;;;9.10;;
52740;SDS011;38634;52.138;9.912;2023-12-20T17:08:48;24.30;;;5.38;;
52740;SDS011;38634;52.138;9.912;2023-12-20T17:11:34;43.10;;;8.50;;
52740;SDS011;38634;52.138;9.912;2023-12-20T17:14:19;70.40;;;12.10;;
52740;SDS011;38634;52.138;9.912;2023-12-20T17:17:04;63.05;;;11.02;;
52740;SDS011;38634;52.138;9.912;2023-12-20T17:19:49;42.17;;;7.72;;
52740;SDS011;38634;52.138;9.912;2023-12-20T17:22:37;48.95;;;8.60;;
52740;SDS011;38634;52.138;9.912;2023-12-20T17:25:21;68.13;;;11.95;;
52740;SDS011;38634;52.138;9.912;2023-12-20T17:28:07;45.42;;;8.52;;
52740;SDS011;38634;52.138;9.912;2023-12-20T17:30:51;46.40;;;8.95;;
52740;SDS011;38634;52.138;9.912;2023-12-20T17:33:36;59.40;;;10.75;;
52740;SDS011;38634;52.138;9.912;2023-12-20T17:36:20;59.55;;;10.15;;
52740;SDS011;38634;52.138;9.912;2023-12-20T17:39:05;57.25;;;10.02;;
52740;SDS011;38634;52.138;9.912;2023-12-20T17:41:50;44.58;;;8.20;;
52740;SDS011;38634;52.138;9.912;2023-12-20T17:44:35;43.67;;;8.05;;
52740;SDS011;38634;52.138;9.912;2023-12-20T17:47:19;68.28;;;11.73;;
52740;SDS011;38634;52.138;9.912;2023-12-20T17:50:04;65.68;;;11.35;;
52740;SDS011;38634;52.138;9.912;2023-12-20T17:52:49;40.45;;;7.78;;
52740;SDS011;38634;52.138;9.912;2023-12-20T17:55:34;46.00;;;8.65;;
52740;SDS011;38634;52.138;9.912;2023-12-20T17:58:18;60.05;;;10.68;;
52740;SDS011;38634;52.138;9.912;2023-12-20T18:01:03;61.90;;;10.82;;
52740;SDS011;38634;52.138;9.912;2023-12-20T18:03:48;50.35;;;9.27;;
52740;SDS011;38634;52.138;9.912;2023-12-20T18:06:33;17.75;;;4.25;;
52740;SDS011;38634;52.138;9.912;2023-12-20T18:09:17;23.80;;;5.22;;
52740;SDS011;38634;52.138;9.912;2023-12-20T18:12:02;19.65;;;4.57;;
52740;SDS011;38634;52.138;9.912;2023-12-20T18:14:49;20.67;;;4.88;;
52740;SDS011;38634;52.138;9.912;2023-12-20T18:17:36;27.10;;;6.00;;
52740;SDS011;38634;52.138;9.912;2023-12-20T18:20:20;20.30;;;4.70;;
52740;SDS011;38634;52.138;9.912;2023-12-20T18:23:05;20.80;;;4.60;;
52740;SDS011;38634;52.138;9.912;2023-12-20T18:25:50;23.08;;;5.00;;
52740;SDS011;38634;52.138;9.912;2023-12-20T18:28:37;23.33;;;5.15;;
52740;SDS011;38634;52.138;9.912;2023-12-20T18:31:22;24.42;;;5.55;;
52740;SDS011;38634;52.138;9.912;2023-12-20T18:34:06;18.65;;;4.45;;
52740;SDS011;38634;52.138;9.912;2023-12-20T18:36:51;18.25;;;4.35;;
52740;SDS011;38634;52.138;9.912;2023-12-20T18:39:39;18.65;;;4.47;;
52740;SDS011;38634;52.138;9.912;2023-12-20T18:42:24;13.98;;;3.72;;
52740;SDS011;38634;52.138;9.912;2023-12-20T18:45:09;9.25;;;3.70;;
52740;SDS011;38634;52.138;9.912;2023-12-20T18:47:54;9.88;;;3.33;;
52740;SDS011;38634;52.138;9.912;2023-12-20T18:50:38;11.20;;;3.38;;
52740;SDS011;38634;52.138;9.912;2023-12-20T18:53:23;23.92;;;5.95;;
52740;SDS011;38634;52.138;9.912;2023-12-20T18:56:08;11.40;;;3.38;;
52740;SDS011;38634;52.138;9.912;2023-12-20T18:58:52;16.10;;;4.25;;
52740;SDS011;38634;52.138;9.912;2023-12-20T19:01:37;13.57;;;3.83;;
52740;SDS011;38634;52.138;9.912;2023-12-20T19:04:22;17.50;;;4.63;;
52740;SDS011;38634;52.138;9.912;2023-12-20T19:07:07;16.83;;;4.45;;
52740;SDS011;38634;52.138;9.912;2023-12-20T19:09:51;14.15;;;4.05;;
52740;SDS011;38634;52.138;9.912;2023-12-20T19:12:36;12.38;;;4.13;;
52740;SDS011;38634;52.138;9.912;2023-12-20T19:15:21;12.30;;;4.03;;
52740;SDS011;38634;52.138;9.912;2023-12-20T19:18:05;14.68;;;4.43;;
52740;SDS011;38634;52.138;9.912;2023-12-20T19:20:50;34.67;;;21.23;;
52740;SDS011;38634;52.138;9.912;2023-12-20T19:23:35;19.75;;;12.50;;
52740;SDS011;38634;52.138;9.912;2023-12-20T19:26:20;19.98;;;9.95;;
52740;SDS011;38634;52.138;9.912;2023-12-20T19:29:05;12.10;;;7.15;;
52740;SDS011;38634;52.138;9.912;2023-12-20T19:31:50;9.75;;;4.22;;
52740;SDS011;38634;52.138;9.912;2023-12-20T19:34:38;10.68;;;4.50;;
52740;SDS011;38634;52.138;9.912;2023-12-20T19:37:23;10.48;;;4.07;;
52740;SDS011;38634;52.138;9.912;2023-12-20T19:40:08;10.70;;;3.80;;
52740;SDS011;38634;52.138;9.912;2023-12-20T19:42:53;11.55;;;3.72;;
52740;SDS011;38634;52.138;9.912;2023-12-20T19:45:37;9.82;;;3.05;;
52740;SDS011;38634;52.138;9.912;2023-12-20T19:48:22;10.38;;;3.60;;
52740;SDS011;38634;52.138;9.912;2023-12-20T19:51:06;11.18;;;4.35;;
52740;SDS011;38634;52.138;9.912;2023-12-20T19:53:51;10.10;;;3.17;;
52740;SDS011;38634;52.138;9.912;2023-12-20T19:56:36;10.40;;;3.20;;
52740;SDS011;38634;52.138;9.912;2023-12-20T19:59:21;11.25;;;3.40;;
52740;SDS011;38634;52.138;9.912;2023-12-20T20:02:05;16.45;;;4.10;;
52740;SDS011;38634;52.138;9.912;2023-12-20T20:04:50;12.30;;;3.47;;
52740;SDS011;38634;52.138;9.912;2023-12-20T20:07:34;13.02;;;3.42;;
52740;SDS011;38634;52.138;9.912;2023-12-20T20:10:19;11.00;;;3.42;;
52740;SDS011;38634;52.138;9.912;2023-12-20T20:13:04;14.02;;;3.83;;
52740;SDS011;38634;52.138;9.912;2023-12-20T20:15:48;9.80;;;3.42;;
52740;SDS011;38634;52.138;9.912;2023-12-20T20:18:33;11.93;;;3.30;;
52740;SDS011;38634;52.138;9.912;2023-12-20T20:21:17;9.60;;;3.42;;
52740;SDS011;38634;52.138;9.912;2023-12-20T20:24:02;11.02;;;3.78;;
52740;SDS011;38634;52.138;9.912;2023-12-20T20:26:47;13.02;;;4.03;;
52740;SDS011;38634;52.138;9.912;2023-12-20T20:29:31;11.88;;;3.78;;
52740;SDS011;38634;52.138;9.912;2023-12-20T20:32:16;10.23;;;3.35;;
52740;SDS011;38634;52.138;9.912;2023-12-20T20:35:01;11.07;;;3.47;;
52740;SDS011;38634;52.138;9.912;2023-12-20T20:37:45;12.50;;;3.63;;
52740;SDS011;38634;52.138;9.912;2023-12-20T20:40:30;12.93;;;3.85;;
52740;SDS011;38634;52.138;9.912;2023-12-20T20:43:15;10.02;;;3.10;;
52740;SDS011;38634;52.138;9.912;2023-12-20T20:45:59;8.35;;;2.72;;
52740;SDS011;38634;52.138;9.912;2023-12-20T20:48:45;12.68;;;3.58;;
52740;SDS011;38634;52.138;9.912;2023-12-20T20:51:30;9.05;;;3.40;;
52740;SDS011;38634;52.138;9.912;2023-12-20T20:54:15;10.32;;;3.70;;
52740;SDS011;38634;52.138;9.912;2023-12-20T20:56:59;8.85;;;3.25;;
52740;SDS011;38634;52.138;9.912;2023-12-20T20:59:44;18.10;;;4.40;;
52740;SDS011;38634;52.138;9.912;2023-12-20T21:02:30;10.65;;;3.05;;
52740;SDS011;38634;52.138;9.912;2023-12-20T21:05:15;12.05;;;3.50;;
52740;SDS011;38634;52.138;9.912;2023-12-20T21:07:59;8.63;;;2.70;;
52740;SDS011;38634;52.138;9.912;2023-12-20T21:10:44;11.88;;;3.80;;
52740;SDS011;38634;52.138;9.912;2023-12-20T21:13:30;13.43;;;3.63;;
52740;SDS011;38634;52.138;9.912;2023-12-20T21:16:14;12.18;;;4.20;;
52740;SDS011;38634;52.138;9.912;2023-12-20T21:18:59;37.50;;;24.33;;
52740;SDS011;38634;52.138;9.912;2023-12-20T21:21:44;15.48;;;9.23;;
52740;SDS011;38634;52.138;9.912;2023-12-20T21:24:29;14.18;;;5.05;;
52740;SDS011;38634;52.138;9.912;2023-12-20T21:27:13;12.07;;;3.65;;
52740;SDS011;38634;52.138;9.912;2023-12-20T21:29:59;13.93;;;3.45;;
52740;SDS011;38634;52.138;9.912;2023-12-20T21:32:43;19.38;;;4.32;;
52740;SDS011;38634;52.138;9.912;2023-12-20T21:35:28;16.52;;;3.83;;
52740;SDS011;38634;52.138;9.912;2023-12-20T21:38:13;18.23;;;4.10;;
52740;SDS011;38634;52.138;9.912;2023-12-20T21:40:58;22.40;;;4.78;;
52740;SDS011;38634;52.138;9.912;2023-12-20T21:43:43;17.17;;;4.15;;
52740;SDS011;38634;52.138;9.912;2023-12-20T21:46:27;9.50;;;3.13;;
52740;SDS011;38634;52.138;9.912;2023-12-20T21:49:13;16.42;;;4.43;;
52740;SDS011;38634;52.138;9.912;2023-12-20T21:51:58;16.77;;;3.85;;
52740;SDS011;38634;52.138;9.912;2023-12-20T21:54:42;16.50;;;3.90;;
52740;SDS011;38634;52.138;9.912;2023-12-20T21:57:27;14.13;;;3.65;;
52740;SDS011;38634;52.138;9.912;2023-12-20T22:00:12;16.67;;;4.57;;
52740;SDS011;38634;52.138;9.912;2023-12-20T22:02:56;18.15;;;3.85;;
52740;SDS011;38634;52.138;9.912;2023-12-20T22:05:42;10.88;;;3.08;;
52740;SDS011;38634;52.138;9.912;2023-12-20T22:08:26;13.48;;;3.63;;
52740;SDS011;38634;52.138;9.912;2023-12-20T22:11:11;19.25;;;4.07;;
52740;SDS011;38634;52.138;9.912;2023-12-20T22:13:55;10.98;;;3.20;;
52740;SDS011;38634;52.138;9.912;2023-12-20T22:16:40;10.73;;;3.25;;
52740;SDS011;38634;52.138;9.912;2023-12-20T22:19:24;10.40;;;3.10;;
52740;SDS011;38634;52.138;9.912;2023-12-20T22:22:09;12.88;;;3.35;;
52740;SDS011;38634;52.138;9.912;2023-12-20T22:24:54;12.95;;;3.72;;
52740;SDS011;38634;52.138;9.912;2023-12-20T22:27:38;22.45;;;10.95;;
52740;SDS011;38634;52.138;9.912;2023-12-20T22:30:23;35.53;;;29.10;;
52740;SDS011;38634;52.138;9.912;2023-12-20T22:33:07;16.13;;;8.02;;
52740;SDS011;38634;52.138;9.912;2023-12-20T22:35:52;11.32;;;3.92;;
52740;SDS011;38634;52.138;9.912;2023-12-20T22:38:38;10.75;;;3.10;;
52740;SDS011;38634;52.138;9.912;2023-12-20T22:41:23;14.18;;;3.95;;
52740;SDS011;38634;52.138;9.912;2023-12-20T22:44:07;11.30;;;3.30;;
52740;SDS011;38634;52.138;9.912;2023-12-20T22:46:52;17.42;;;4.18;;
52740;SDS011;38634;52.138;9.912;2023-12-20T22:49:37;14.13;;;4.28;;
52740;SDS011;38634;52.138;9.912;2023-12-20T22:52:21;8.80;;;2.90;;
52740;SDS011;38634;52.138;9.912;2023-12-20T22:55:06;10.23;;;2.95;;
52740;SDS011;38634;52.138;9.912;2023-12-20T22:57:51;7.95;;;2.45;;
52740;SDS011;38634;52.138;9.912;2023-12-20T23:00:35;12.18;;;3.38;;
52740;SDS011;38634;52.138;9.912;2023-12-20T23:03:20;18.88;;;4.28;;
52740;SDS011;38634;52.138;9.912;2023-12-20T23:06:08;9.48;;;3.40;;
52740;SDS011;38634;52.138;9.912;2023-12-20T23:08:53;10.55;;;3.28;;
52740;SDS011;38634;52.138;9.912;2023-12-20T23:11:38;14.35;;;4.00;;
52740;SDS011;38634;52.138;9.912;2023-12-20T23:14:23;11.10;;;3.40;;
52740;SDS011;38634;52.138;9.912;2023-12-20T23:17:08;13.27;;;3.63;;
52740;SDS011;38634;52.138;9.912;2023-12-20T23:19:52;13.45;;;4.45;;
52740;SDS011;38634;52.138;9.912;2023-12-20T23:22:37;12.85;;;3.33;;
52740;SDS011;38634;52.138;9.912;2023-12-20T23:25:21;12.98;;;3.90;;
52740;SDS011;38634;52.138;9.912;2023-12-20T23:28:06;11.07;;;3.17;;
52740;SDS011;38634;52.138;9.912;2023-12-20T23:30:51;14.13;;;3.83;;
52740;SDS011;38634;52.138;9.912;2023-12-20T23:33:35;23.73;;;5.70;;
52740;SDS011;38634;52.138;9.912;2023-12-20T23:36:20;12.25;;;3.33;;
52740;SDS011;38634;52.138;9.912;2023-12-20T23:39:05;12.63;;;4.20;;
52740;SDS011;38634;52.138;9.912;2023-12-20T23:41:50;12.38;;;3.53;;
52740;SDS011;38634;52.138;9.912;2023-12-20T23:44:34;14.40;;;3.80;;
52740;SDS011;38634;52.138;9.912;2023-12-20T23:47:19;10.13;;;2.85;;
52740;SDS011;38634;52.138;9.912;2023-12-20T23:50:04;13.23;;;3.63;;
52740;SDS011;38634;52.138;9.912;2023-12-20T23:52:50;14.95;;;3.88;;
52740;SDS011;38634;52.138;9.912;2023-12-20T23:55:34;41.70;;;17.75;;
52740;SDS011;38634;52.138;9.912;2023-12-20T23:58:19;13.52;;;6.90;;
